GBYD

Details ICAO GBYD (BJL)
Name Banjul Intl
Region The Gambia
Timezone Africa/Banjul (UTC+0.0)
Plans Departing 54
Arriving 97
Stats Elevation 95 ft / 29 m (AMSL)
Location 13.337960° -16.652206°
Runways 1
Magnetic Variation 7.310° W
Sunrise 2017-12-17 07:23:53 UTC / 2017-12-17 07:23:53 Local
Sunset 2017-12-17 18:44:21 UTC / 2017-12-17 18:44:21 Local
Advertisement - Login to hide

Runways

ID Width Length Bearing (true) Bearing (mag) Surface Threshold Offset Overrun Length
14 148 ft / 45 m 11,825 ft / 3,604 m 130.82° 138.13° Asphalt 500 ft / 152 m 197 ft / 60 m
32 148 ft / 45 m 11,825 ft / 3,604 m 310.83° 318.14° Asphalt 500 ft / 152 m 393 ft / 120 m

Map

Weather


0- 5 10 15 20 25 30 35+ Temperature / ° C

Clouds and Precipitation
Forecast for 2017-12-18 00:00 UTC. Updated 21 minutes ago

Ground ~20,000 ft ~40,000 ft Winds

METAR

Not found

TAF

TAF TAF GBYD 171730Z 1718/1824 05008KT CAVOK

Frequencies

Unicom 130.60 MHz GAMBIA AIRWAYS MULTICOM
Tower 118.30 MHz BANJUL TWR
Ground 121.90 MHz BANJUL TOWER GND
Approach 121.30 MHz BANJUL TOWER APP
Warning: Do not use this data for real-world aviation or navigation. No guarantee of current accuracy is given.